KVOK/VOK METAR and TAF weather

Enter ICAO airport designator
Station Type Date Time Source
KVOK METAR 2022/11/30 11:35 UTC NOAA

KVOK 301135Z AUTO 28015G20KT 10SM OVC022 M06/M10 A2979 RMK AO2 UPE22UPB30E35 SLP103


Station Type Date Time Source
KVOK Decoded METAR 2022/11/30 11:35 UTC NOAA

Volk / Camp Douglas, WI, United States (KVOK) 43-56N 090-16W
Nov 30, 2022 - 06:35 AM EST / 2022.11.30 1135 UTC
Wind: from the W (280 degrees) at 17 MPH (15 KT) gusting to 23 MPH (20 KT):0
Visibility: 10 mile(s):0
Sky conditions: overcast
Temperature: 21 F (-6 C)
Windchill: 6 F (-14 C):1
Dew Point: 14 F (-10 C)
Relative Humidity: 73%
Pressure (altimeter): 29.79 in. Hg (1008 hPa)
ob: KVOK 301135Z AUTO 28015G20KT 10SM OVC022 M06/M10 A2979 RMK AO2 UPE22UPB30E35 SLP103
cycle: 11

Station Type Date Time Source
KVOK TAF 2022/11/30 09:04 UTC NOAA

TAF KVOK 300900Z 3009/0115 29012G18KT 9999 BKN020 OVC027 620202 510002 QNH2969INS
BECMG 3016/3017 29025G35KT 9999 FEW021 OVC035 620355 510002 QNH2991INS
BECMG 0102/0104 27012KT 9999 SKC QNH3020INS TXM04/3019Z TNM08/0109Z

Example: see airport list